Time;durP1;ratioP1;P1;durP2;ratioP2;P2;SDS_P1;SDS_P2;PMS_P1;PMS_P2;Temp;Humidity;BMP_temperature;BMP_pressure;BME280_temperature;BME280_humidity;BME280_pressure;Samples;Min_cycle;Max_cycle;Signal;HPM_P1;HPM_P2
2023/05/27 00:00:49;;;;;;;8.70;4.10;;;;;;;12.37;60.09;97344.31;108975;1273;22553;-80
2023/05/27 00:03:34;;;;;;;5.90;3.40;;;;;;;12.33;60.33;97345.03;108969;1270;22979;-80
2023/05/27 00:06:05;;;;;;;8.20;4.20;;;;;;;12.29;60.49;97340.42;108922;1274;25288;-80
2023/05/27 00:08:36;;;;;;;7.40;4.50;;;;;;;12.22;60.52;97338.10;108961;1266;24615;-80
2023/05/27 00:11:07;;;;;;;9.80;3.90;;;;;;;12.19;60.59;97334.87;108970;1273;23322;-80
2023/05/27 00:13:38;;;;;;;8.50;4.10;;;;;;;12.15;60.52;97337.02;108969;1273;22538;-80
2023/05/27 00:16:09;;;;;;;10.10;3.90;;;;;;;12.11;60.63;97337.34;108973;1268;24381;-80
2023/05/27 00:18:40;;;;;;;9.60;3.70;;;;;;;12.06;60.79;97335.54;108953;1266;22554;-80
2023/05/27 00:21:11;;;;;;;8.90;4.40;;;;;;;12.02;60.81;97337.20;108960;1272;22534;-80
2023/05/27 00:23:43;;;;;;;9.90;4.00;;;;;;;11.98;61.05;97335.14;108985;1270;22542;-80
2023/05/27 00:26:14;;;;;;;8.50;4.10;;;;;;;11.94;61.00;97336.14;108968;1273;22552;-80
2023/05/27 00:28:44;;;;;;;9.20;4.00;;;;;;;11.91;61.12;97332.70;108953;1269;22515;-80
2023/05/27 00:31:16;;;;;;;10.80;3.90;;;;;;;11.88;61.40;97335.64;109012;1273;22488;-80
2023/05/27 00:33:51;;;;;;;8.60;4.20;;;;;;;11.88;61.85;97335.37;108994;1274;25328;-80
2023/05/27 00:36:21;;;;;;;11.00;3.90;;;;;;;11.88;61.91;97333.98;109024;1270;24196;-80
2023/05/27 00:38:52;;;;;;;9.70;3.70;;;;;;;11.89;61.68;97335.84;108994;1274;22541;-80
2023/05/27 00:41:26;;;;;;;7.80;3.90;;;;;;;11.86;61.71;97341.59;108998;1271;23847;-80
2023/05/27 00:43:58;;;;;;;7.30;3.70;;;;;;;11.66;61.85;97342.16;108968;1271;25643;-80
2023/05/27 00:46:29;;;;;;;10.10;3.70;;;;;;;11.44;62.50;97342.02;108973;1274;26105;-80
2023/05/27 00:49:00;;;;;;;12.90;4.00;;;;;;;11.32;62.75;97340.14;108960;1274;22617;-80
2023/05/27 00:51:31;;;;;;;9.30;3.50;;;;;;;11.26;62.99;97339.02;108943;1266;22655;-80
2023/05/27 00:54:02;;;;;;;8.00;3.70;;;;;;;11.30;62.76;97342.32;108962;1266;22535;-80
2023/05/27 00:56:33;;;;;;;8.50;4.20;;;;;;;11.37;62.84;97343.11;108962;1269;24244;-80
2023/05/27 00:59:04;;;;;;;9.10;3.70;;;;;;;11.45;63.28;97345.56;109011;1272;22514;-80
2023/05/27 01:01:38;;;;;;;9.10;3.90;;;;;;;11.49;63.50;97346.56;108964;1274;24207;-80
2023/05/27 01:04:12;;;;;;;8.80;4.10;;;;;;;11.52;63.75;97347.95;108956;1274;22535;-80
2023/05/27 01:06:59;;;;;;;8.30;3.90;;;;;;;11.49;63.72;97348.27;108979;1273;22538;-80
2023/05/27 01:09:38;;;;;;;8.70;3.60;;;;;;;11.31;63.89;97345.02;108971;1266;22527;-80
2023/05/27 01:12:13;;;;;;;8.00;4.10;;;;;;;11.13;64.16;97339.16;108911;1270;22523;-80
2023/05/27 01:14:46;;;;;;;6.70;3.70;;;;;;;10.93;64.52;97339.77;108953;1273;22559;-80
2023/05/27 01:17:18;;;;;;;9.90;4.30;;;;;;;10.89;65.02;97342.83;108952;1272;22558;-80
2023/05/27 01:19:50;;;;;;;10.10;3.80;;;;;;;10.95;65.22;97340.92;108976;1274;22523;-80
2023/05/27 01:22:23;;;;;;;9.50;3.90;;;;;;;10.96;64.82;97345.13;109006;1274;24492;-80
2023/05/27 01:24:55;;;;;;;9.20;4.00;;;;;;;11.00;65.27;97342.97;109057;1272;25847;-80
2023/05/27 01:27:26;;;;;;;8.40;4.40;;;;;;;11.06;65.53;97346.52;108927;1273;22516;-80
2023/05/27 01:29:58;;;;;;;6.80;3.50;;;;;;;11.10;65.68;97347.27;108964;1269;22958;-80
2023/05/27 01:32:34;;;;;;;8.10;3.80;;;;;;;11.12;65.70;97346.34;108977;1274;22521;-80
2023/05/27 01:35:13;;;;;;;9.70;4.10;;;;;;;11.12;65.47;97343.63;108939;1271;22523;-80
2023/05/27 01:37:46;;;;;;;9.80;3.60;;;;;;;11.03;65.62;97346.73;108930;1273;22613;-80
2023/05/27 01:40:17;;;;;;;12.80;4.30;;;;;;;10.98;65.43;97346.04;108979;1274;22525;-80
2023/05/27 01:42:48;;;;;;;12.50;4.00;;;;;;;10.94;65.28;97350.48;108977;1269;22524;-80
2023/05/27 01:45:19;;;;;;;7.10;4.00;;;;;;;10.96;65.50;97348.78;108973;1270;22521;-80
2023/05/27 01:47:51;;;;;;;9.30;4.40;;;;;;;11.03;65.65;97343.55;108931;1272;25236;-80
2023/05/27 01:50:22;;;;;;;8.90;3.80;;;;;;;10.98;65.59;97342.54;108963;1274;22582;-80
2023/05/27 01:52:53;;;;;;;8.80;3.80;;;;;;;10.98;65.82;97343.01;108968;1274;24397;-80
2023/05/27 01:55:24;;;;;;;9.70;3.80;;;;;;;11.00;65.90;97337.34;108959;1272;25342;-80
2023/05/27 01:57:55;;;;;;;11.50;4.90;;;;;;;10.97;65.83;97338.08;108975;1272;24232;-80
2023/05/27 02:00:26;;;;;;;8.60;4.00;;;;;;;10.72;65.76;97337.69;109040;1273;24202;-80
2023/05/27 02:02:57;;;;;;;9.90;3.80;;;;;;;10.47;66.08;97335.95;108982;1274;22528;-80
2023/05/27 02:05:28;;;;;;;9.30;3.80;;;;;;;10.28;66.44;97335.35;108966;1274;22526;-80
2023/05/27 02:07:59;;;;;;;11.20;4.60;;;;;;;10.22;66.98;97339.45;108981;1274;23006;-80
2023/05/27 02:10:30;;;;;;;11.00;4.50;;;;;;;10.29;67.15;97340.98;108958;1268;24338;-80
2023/05/27 02:13:01;;;;;;;8.50;4.00;;;;;;;10.36;67.31;97343.91;108943;1274;22608;-80
2023/05/27 02:15:32;;;;;;;10.50;4.10;;;;;;;10.46;67.35;97344.98;108905;1274;22511;-80
2023/05/27 02:18:04;;;;;;;9.90;4.30;;;;;;;10.47;67.13;97347.15;108959;1274;25353;-80
2023/05/27 02:20:35;;;;;;;9.90;4.30;;;;;;;10.42;66.99;97346.66;108979;1265;22522;-80
2023/05/27 02:23:09;;;;;;;9.10;3.90;;;;;;;10.42;66.98;97345.80;108972;1274;22526;-80
2023/05/27 02:25:39;;;;;;;11.20;4.00;;;;;;;10.42;67.06;97345.86;108929;1273;25366;-80
2023/05/27 02:28:10;;;;;;;9.90;4.10;;;;;;;10.36;67.00;97347.27;108950;1274;22725;-80
2023/05/27 02:30:41;;;;;;;6.90;3.90;;;;;;;10.18;67.04;97355.36;108945;1268;25236;-80
2023/05/27 02:33:12;;;;;;;8.80;4.20;;;;;;;10.18;67.55;97355.62;108972;1273;22534;-80
2023/05/27 02:35:43;;;;;;;11.30;4.50;;;;;;;10.23;67.59;97357.78;108953;1266;25214;-80
2023/05/27 02:38:14;;;;;;;13.00;5.10;;;;;;;10.28;67.45;97362.33;108987;1273;26448;-80
2023/05/27 02:40:45;;;;;;;11.80;5.30;;;;;;;10.24;67.15;97363.20;108978;1266;22553;-80
2023/05/27 02:43:16;;;;;;;11.40;4.30;;;;;;;10.21;67.21;97367.77;108957;1266;22507;-80
2023/05/27 02:45:47;;;;;;;10.60;4.00;;;;;;;10.22;67.33;97372.46;108930;1274;22525;-80
2023/05/27 02:48:17;;;;;;;8.50;4.00;;;;;;;10.12;67.36;97373.13;108943;1273;22509;-79
2023/05/27 02:50:48;;;;;;;9.20;4.10;;;;;;;9.98;67.59;97373.52;109003;1273;22526;-79
2023/05/27 02:53:20;;;;;;;9.40;4.20;;;;;;;9.95;67.86;97379.58;108988;1266;26487;-79
2023/05/27 02:55:52;;;;;;;9.90;4.70;;;;;;;9.96;67.88;97384.52;108979;1273;22517;-79
2023/05/27 02:58:22;;;;;;;10.10;4.40;;;;;;;10.00;67.83;97382.17;108980;1274;22535;-80
2023/05/27 03:00:53;;;;;;;11.10;4.40;;;;;;;10.07;68.08;97388.14;108986;1273;24220;-80
2023/05/27 03:03:25;;;;;;;10.00;4.40;;;;;;;10.16;68.20;97385.39;108926;1266;22543;-80
2023/05/27 03:05:56;;;;;;;11.80;5.00;;;;;;;10.19;68.00;97385.63;108970;1273;24241;-80
2023/05/27 03:08:26;;;;;;;9.30;4.60;;;;;;;10.15;67.70;97385.92;108985;1274;22519;-80
2023/05/27 03:10:57;;;;;;;10.00;4.20;;;;;;;10.20;67.93;97386.16;108935;1274;22545;-80
2023/05/27 03:13:28;;;;;;;11.30;4.80;;;;;;;10.26;67.96;97386.11;108993;1273;22512;-80
2023/05/27 03:15:59;;;;;;;9.90;4.30;;;;;;;10.31;67.82;97389.55;108963;1273;22522;-79
2023/05/27 03:18:30;;;;;;;8.90;4.10;;;;;;;10.34;67.70;97390.23;108981;1273;22513;-80
2023/05/27 03:21:02;;;;;;;11.80;4.70;;;;;;;10.30;67.69;97394.30;108939;1266;22560;-80
2023/05/27 03:23:32;;;;;;;9.40;4.60;;;;;;;10.14;67.69;97394.60;108967;1273;23575;-79
2023/05/27 03:26:04;;;;;;;10.90;4.50;;;;;;;10.10;68.16;97397.33;108906;1273;25413;-80
2023/05/27 03:28:35;;;;;;;10.00;4.10;;;;;;;10.17;68.43;97396.37;108988;1272;22622;-80
2023/05/27 03:31:06;;;;;;;9.10;4.50;;;;;;;10.20;68.55;97396.75;108925;1273;24868;-80
2023/05/27 03:33:38;;;;;;;7.10;3.80;;;;;;;10.17;68.49;97398.55;108940;1274;22517;-79
2023/05/27 03:36:09;;;;;;;9.30;4.10;;;;;;;10.15;68.67;97400.23;108950;1274;22512;-80
2023/05/27 03:38:40;;;;;;;9.00;4.10;;;;;;;10.17;68.92;97403.26;108988;1274;22535;-79
2023/05/27 03:41:11;;;;;;;12.20;4.50;;;;;;;10.24;69.03;97405.64;108966;1272;22516;-80
2023/05/27 03:43:42;;;;;;;8.80;3.60;;;;;;;10.25;68.97;97402.69;108986;1274;22534;-79
2023/05/27 03:46:13;;;;;;;9.10;4.30;;;;;;;10.32;69.34;97404.17;108934;1266;25294;-80
2023/05/27 03:48:44;;;;;;;8.30;4.20;;;;;;;10.41;69.43;97405.12;108980;1269;22521;-79
2023/05/27 03:51:15;;;;;;;9.90;4.60;;;;;;;10.50;69.58;97402.35;108985;1273;22511;-79
2023/05/27 03:53:46;;;;;;;8.60;4.40;;;;;;;10.58;69.47;97402.25;108970;1269;22949;-80
2023/05/27 03:56:17;;;;;;;8.20;3.70;;;;;;;10.58;69.27;97403.14;108902;1274;22515;-80
2023/05/27 03:58:49;;;;;;;6.60;3.80;;;;;;;10.67;69.82;97406.90;108999;1274;22574;-79
2023/05/27 04:01:23;;;;;;;9.50;3.70;;;;;;;10.77;70.30;97410.91;108997;1274;22528;-80
2023/05/27 04:03:54;;;;;;;9.80;4.20;;;;;;;10.78;70.33;97415.46;108966;1272;22515;-79
2023/05/27 04:06:25;;;;;;;7.00;3.80;;;;;;;10.74;70.36;97417.48;108879;1272;23705;-79
2023/05/27 04:08:56;;;;;;;9.80;3.70;;;;;;;10.84;71.02;97418.15;108961;1273;22514;-80
2023/05/27 04:11:29;;;;;;;10.40;4.00;;;;;;;10.95;71.30;97420.90;108972;1273;22529;-80
2023/05/27 04:14:00;;;;;;;7.30;3.80;;;;;;;11.07;71.59;97418.48;108948;1262;22740;-79
2023/05/27 04:16:33;;;;;;;6.60;3.80;;;;;;;11.19;71.73;97419.80;108899;1274;22526;-79
2023/05/27 04:19:04;;;;;;;11.30;4.40;;;;;;;11.33;71.82;97425.20;108980;1254;22523;-80
2023/05/27 04:21:36;;;;;;;10.20;4.80;;;;;;;11.46;71.88;97430.64;108994;1273;22525;-80
2023/05/27 04:24:07;;;;;;;10.50;3.70;;;;;;;11.60;72.08;97428.16;108994;1272;22560;-80
2023/05/27 04:26:40;;;;;;;8.20;4.40;;;;;;;11.72;72.06;97429.81;108936;1274;22521;-80
2023/05/27 04:29:11;;;;;;;10.90;4.70;;;;;;;11.85;72.44;97425.38;108948;1270;22609;-79
2023/05/27 04:31:44;;;;;;;10.50;4.40;;;;;;;11.92;72.08;97425.11;108959;1272;22518;-79
2023/05/27 04:34:16;;;;;;;11.30;4.80;;;;;;;11.99;72.10;97428.73;108959;1274;22558;-80
2023/05/27 04:36:49;;;;;;;8.20;4.90;;;;;;;12.09;72.00;97435.77;108963;1273;28650;-79
2023/05/27 04:39:20;;;;;;;11.00;5.00;;;;;;;12.16;71.97;97436.73;108978;1273;22518;-79
2023/05/27 04:41:51;;;;;;;10.70;4.70;;;;;;;12.23;71.73;97437.36;108981;1274;22549;-79
2023/05/27 04:44:22;;;;;;;9.80;4.70;;;;;;;12.29;70.90;97439.02;108957;1267;22528;-79
2023/05/27 04:46:53;;;;;;;9.90;4.90;;;;;;;12.39;70.78;97442.66;108948;1273;22560;-79
2023/05/27 04:49:25;;;;;;;9.30;4.50;;;;;;;12.51;70.45;97441.67;108940;1273;22525;-79
2023/05/27 04:51:56;;;;;;;9.90;4.50;;;;;;;12.65;70.41;97440.84;108939;1272;22527;-79
2023/05/27 04:54:27;;;;;;;9.80;4.90;;;;;;;12.81;69.90;97442.07;108929;1274;22544;-79
2023/05/27 04:56:59;;;;;;;12.20;5.30;;;;;;;12.98;69.57;97440.40;108917;1272;22530;-79
2023/05/27 04:59:45;;;;;;;14.90;5.10;;;;;;;13.26;69.55;97448.81;108930;1273;22521;-79
2023/05/27 05:02:22;;;;;;;11.00;5.30;;;;;;;13.63;69.07;97444.45;108941;1273;22552;-79
2023/05/27 05:04:53;;;;;;;11.60;4.70;;;;;;;13.91;68.26;97442.16;108964;1273;22541;-79
2023/05/27 05:07:24;;;;;;;10.80;5.50;;;;;;;14.24;67.73;97442.04;108945;1274;22532;-79
2023/05/27 05:09:55;;;;;;;10.40;5.10;;;;;;;14.76;67.38;97442.27;108975;1271;22518;-79
2023/05/27 05:12:26;;;;;;;11.20;5.20;;;;;;;14.87;66.03;97444.24;108953;1274;22557;-79
2023/05/27 05:14:58;;;;;;;9.90;5.20;;;;;;;14.65;65.20;97441.12;108943;1273;22521;-79
2023/05/27 05:17:29;;;;;;;10.20;4.90;;;;;;;14.43;65.51;97437.77;108898;1272;22519;-80
2023/05/27 05:20:00;;;;;;;10.40;5.20;;;;;;;14.51;65.99;97439.94;108938;1270;26456;-79
2023/05/27 05:22:31;;;;;;;10.60;5.10;;;;;;;14.80;65.90;97433.69;108968;1270;22534;-80
2023/05/27 05:25:04;;;;;;;12.50;5.80;;;;;;;15.06;65.25;97429.91;108921;1273;22518;-80
2023/05/27 05:27:36;;;;;;;11.60;5.70;;;;;;;15.59;65.04;97428.77;108867;1274;22685;-79
2023/05/27 05:30:09;;;;;;;12.70;5.90;;;;;;;16.32;64.85;97427.82;108967;1273;22517;-79
2023/05/27 05:32:40;;;;;;;13.70;6.00;;;;;;;16.71;62.85;97434.23;108912;1273;22533;-80
2023/05/27 05:35:11;;;;;;;12.40;5.80;;;;;;;16.52;62.01;97431.67;108953;1273;23191;-79
2023/05/27 05:37:42;;;;;;;10.60;5.30;;;;;;;16.31;61.64;97429.91;108899;1267;22546;-79
2023/05/27 05:40:14;;;;;;;11.80;5.80;;;;;;;15.98;61.09;97433.48;108947;1274;22517;-80
2023/05/27 05:42:45;;;;;;;11.20;5.60;;;;;;;15.90;61.54;97433.44;108975;1274;22525;-80
2023/05/27 05:45:17;;;;;;;15.00;5.60;;;;;;;15.85;61.24;97432.73;108933;1273;22544;-80
2023/05/27 05:47:48;;;;;;;10.50;5.60;;;;;;;15.63;61.34;97439.52;108961;1273;26297;-79
2023/05/27 05:50:19;;;;;;;9.80;4.70;;;;;;;15.97;61.86;97436.76;108949;1273;23237;-79
2023/05/27 05:52:50;;;;;;;11.80;4.80;;;;;;;16.20;61.06;97442.27;108973;1272;22541;-80
2023/05/27 05:55:21;;;;;;;13.30;6.20;;;;;;;16.96;61.82;97445.46;108939;1273;22518;-79
2023/05/27 05:57:52;;;;;;;15.30;4.90;;;;;;;17.45;59.88;97443.23;108951;1273;22527;-79
2023/05/27 06:00:24;;;;;;;13.70;5.90;;;;;;;17.91;59.60;97446.05;108900;1273;22530;-80
2023/05/27 06:02:55;;;;;;;12.60;5.00;;;;;;;17.87;57.48;97444.17;108973;1273;22531;-80
2023/05/27 06:05:26;;;;;;;10.80;5.20;;;;;;;17.60;57.46;97449.70;108944;1271;22559;-79
2023/05/27 06:07:57;;;;;;;15.90;6.20;;;;;;;17.85;58.09;97454.79;108955;1274;22565;-80
2023/05/27 06:10:29;;;;;;;16.10;6.70;;;;;;;17.99;57.50;97456.97;108966;1272;23112;-79
2023/05/27 06:13:00;;;;;;;12.40;5.70;;;;;;;18.11;57.20;97456.69;108996;1251;22515;-80
2023/05/27 06:15:31;;;;;;;11.60;5.20;;;;;;;18.48;56.62;97456.61;108956;1273;22725;-80
2023/05/27 06:18:03;;;;;;;13.70;5.40;;;;;;;19.16;56.74;97456.62;108927;1274;25275;-80
2023/05/27 06:20:33;;;;;;;12.30;5.60;;;;;;;19.99;55.73;97459.24;108901;1273;22529;-80
2023/05/27 06:23:05;;;;;;;11.70;5.30;;;;;;;20.27;54.78;97460.02;108958;1272;22517;-80
2023/05/27 06:25:36;;;;;;;15.50;5.70;;;;;;;20.57;53.27;97461.96;109009;1271;22525;-80
2023/05/27 06:28:07;;;;;;;11.20;4.60;;;;;;;20.86;52.96;97461.56;108986;1267;22525;-79
2023/05/27 06:30:39;;;;;;;13.70;5.40;;;;;;;21.46;51.68;97464.30;108946;1267;22935;-80
2023/05/27 06:33:10;;;;;;;11.30;4.90;;;;;;;21.92;50.90;97465.49;108930;1274;25249;-80
2023/05/27 06:35:41;;;;;;;11.00;4.50;;;;;;;22.52;50.16;97459.24;108919;1266;24221;-80
2023/05/27 06:38:13;;;;;;;12.20;5.10;;;;;;;22.92;49.16;97459.27;108925;1274;22559;-79
2023/05/27 06:40:44;;;;;;;12.80;4.80;;;;;;;23.25;48.12;97462.33;108938;1270;22518;-79
2023/05/27 06:43:15;;;;;;;10.00;4.40;;;;;;;23.03;45.95;97460.02;108966;1273;24259;-79
2023/05/27 06:45:46;;;;;;;13.20;4.70;;;;;;;22.55;45.47;97467.31;108949;1273;22445;-80
2023/05/27 06:48:17;;;;;;;11.70;4.50;;;;;;;22.28;45.53;97466.02;108957;1273;22522;-79
2023/05/27 06:50:49;;;;;;;11.80;4.60;;;;;;;22.61;46.18;97469.13;108964;1272;22535;-79
2023/05/27 06:53:20;;;;;;;10.20;4.60;;;;;;;23.18;45.72;97463.43;108916;1274;26197;-79
2023/05/27 06:55:51;;;;;;;11.10;4.90;;;;;;;23.59;45.15;97465.33;108977;1273;22551;-79
2023/05/27 06:58:23;;;;;;;10.90;4.90;;;;;;;23.61;43.44;97466.00;108958;1272;25381;-79
2023/05/27 07:00:54;;;;;;;10.00;4.50;;;;;;;23.35;43.25;97471.24;108958;1273;22561;-79
2023/05/27 07:03:25;;;;;;;11.50;5.00;;;;;;;23.34;43.48;97469.83;108979;1271;25240;-79
2023/05/27 07:05:56;;;;;;;9.90;5.10;;;;;;;23.17;42.79;97468.27;108944;1274;22526;-79
2023/05/27 07:08:27;;;;;;;10.80;4.70;;;;;;;23.33;43.63;97469.39;108927;1273;22539;-79
2023/05/27 07:10:58;;;;;;;12.20;4.00;;;;;;;23.73;43.26;97467.59;108976;1273;23425;-79
2023/05/27 07:13:29;;;;;;;11.50;4.10;;;;;;;23.42;41.57;97469.28;109005;1270;22523;-79
2023/05/27 07:16:00;;;;;;;10.20;4.20;;;;;;;23.42;42.76;97466.51;108952;1273;22537;-79
2023/05/27 07:18:31;;;;;;;8.70;4.10;;;;;;;23.75;41.95;97462.38;108952;1272;22598;-79
2023/05/27 07:21:03;;;;;;;11.00;4.40;;;;;;;23.94;41.37;97464.27;108978;1274;24386;-79
2023/05/27 07:23:34;;;;;;;13.00;4.80;;;;;;;23.37;39.33;97462.63;108972;1273;25328;-79
2023/05/27 07:26:05;;;;;;;12.40;5.00;;;;;;;22.50;39.69;97469.06;108940;1273;22520;-80
2023/05/27 07:28:37;;;;;;;10.10;4.20;;;;;;;22.05;39.52;97470.81;108984;1273;25291;-79
2023/05/27 07:31:08;;;;;;;12.40;4.80;;;;;;;21.75;41.16;97470.11;108991;1267;22547;-80
2023/05/27 07:33:39;;;;;;;9.60;4.10;;;;;;;22.34;41.92;97467.21;108964;1273;22548;-79
2023/05/27 07:36:10;;;;;;;9.90;4.00;;;;;;;22.53;41.15;97466.06;108959;1271;22524;-79
2023/05/27 07:38:41;;;;;;;7.80;3.70;;;;;;;22.47;41.33;97469.06;108975;1273;25358;-80
2023/05/27 07:41:13;;;;;;;11.10;4.60;;;;;;;22.90;41.98;97465.79;108947;1273;22516;-80
2023/05/27 07:43:44;;;;;;;10.70;4.00;;;;;;;23.31;40.67;97468.57;108988;1271;22526;-79
2023/05/27 07:46:15;;;;;;;10.20;4.30;;;;;;;22.67;38.00;97463.72;108976;1273;22513;-79
2023/05/27 07:48:46;;;;;;;10.20;4.10;;;;;;;22.17;40.49;97466.57;108984;1273;24368;-79
2023/05/27 07:51:17;;;;;;;10.90;4.10;;;;;;;22.42;40.12;97467.66;108949;1274;22520;-80
2023/05/27 07:53:48;;;;;;;10.20;4.10;;;;;;;22.34;40.11;97464.30;108988;1271;22531;-80
2023/05/27 07:56:19;;;;;;;11.00;4.20;;;;;;;22.35;40.39;97461.74;108927;1273;24717;-80
2023/05/27 07:58:50;;;;;;;13.20;4.70;;;;;;;22.45;41.08;97461.52;108973;1273;22554;-80
2023/05/27 08:01:21;;;;;;;12.00;4.30;;;;;;;22.82;41.42;97453.23;108966;1273;22589;-80
2023/05/27 08:03:52;;;;;;;11.80;4.30;;;;;;;22.69;39.14;97454.04;108940;1273;22671;-80
2023/05/27 08:06:23;;;;;;;10.90;4.10;;;;;;;22.26;40.36;97455.96;108952;1274;22530;-79
2023/05/27 08:08:54;;;;;;;10.30;4.20;;;;;;;22.10;39.07;97456.03;108940;1267;22522;-80
2023/05/27 08:11:25;;;;;;;10.30;4.10;;;;;;;21.74;40.46;97457.95;108973;1268;22942;-80
2023/05/27 08:13:56;;;;;;;11.90;4.60;;;;;;;21.96;41.46;97460.54;108949;1270;23304;-80
2023/05/27 08:16:27;;;;;;;9.20;4.00;;;;;;;22.12;41.23;97459.60;108965;1270;22767;-80
2023/05/27 08:18:58;;;;;;;12.20;4.50;;;;;;;22.35;42.05;97459.39;108951;1273;22523;-80
2023/05/27 08:21:29;;;;;;;12.30;4.60;;;;;;;22.78;41.90;97453.65;108938;1270;22552;-80
2023/05/27 08:24:00;;;;;;;11.50;4.10;;;;;;;22.78;40.35;97456.19;108954;1270;22668;-80
2023/05/27 08:26:31;;;;;;;14.60;5.50;;;;;;;22.31;41.35;97457.77;108936;1273;24265;-80
2023/05/27 08:29:02;;;;;;;12.90;4.70;;;;;;;22.45;41.56;97455.95;108989;1270;25405;-80
2023/05/27 08:31:34;;;;;;;13.40;4.10;;;;;;;22.48;41.51;97453.72;108952;1273;24257;-80
2023/05/27 08:34:05;;;;;;;12.70;4.40;;;;;;;22.58;41.65;97450.83;108925;1266;22526;-80
2023/05/27 08:36:36;;;;;;;14.10;4.60;;;;;;;22.69;41.58;97448.92;108942;1273;23731;-80
2023/05/27 08:39:07;;;;;;;11.30;4.10;;;;;;;22.68;40.84;97446.51;108950;1273;22562;-80
2023/05/27 08:41:39;;;;;;;10.60;4.10;;;;;;;22.63;41.49;97449.30;108987;1273;22531;-81
2023/05/27 08:44:11;;;;;;;12.60;4.30;;;;;;;22.55;40.93;97444.62;108935;1271;22580;-80
2023/05/27 08:46:42;;;;;;;11.80;4.70;;;;;;;22.28;40.99;97440.93;108978;1273;22500;-80
2023/05/27 08:49:13;;;;;;;11.90;4.30;;;;;;;22.09;41.11;97444.20;108984;1273;22515;-80
2023/05/27 08:51:46;;;;;;;8.90;4.00;;;;;;;21.87;40.67;97446.41;108971;1270;24520;-81
2023/05/27 08:54:17;;;;;;;13.80;4.40;;;;;;;21.69;41.77;97445.14;108975;1273;22515;-80
2023/05/27 08:56:50;;;;;;;11.00;4.00;;;;;;;21.71;41.91;97440.58;108968;1267;22723;-80
2023/05/27 08:59:21;;;;;;;12.20;4.30;;;;;;;21.49;41.69;97436.52;109019;1270;24385;-80
2023/05/27 09:01:52;;;;;;;10.00;3.70;;;;;;;21.36;42.10;97437.77;108994;1267;22531;-80
2023/05/27 09:04:24;;;;;;;11.80;4.50;;;;;;;20.87;40.87;97433.94;108977;1273;22510;-80
2023/05/27 09:06:55;;;;;;;11.30;3.90;;;;;;;20.56;42.15;97427.29;108926;1267;22645;-81
2023/05/27 09:09:26;;;;;;;11.70;3.80;;;;;;;20.51;42.73;97420.64;108939;1260;22540;-80
2023/05/27 09:12:02;;;;;;;10.30;4.00;;;;;;;20.58;43.22;97425.54;108935;1273;22567;-81
2023/05/27 09:14:37;;;;;;;12.10;4.40;;;;;;;20.64;43.23;97425.79;109002;1270;22571;-81
2023/05/27 09:17:11;;;;;;;14.60;4.00;;;;;;;20.71;43.25;97421.23;108940;1273;27441;-81
2023/05/27 09:19:42;;;;;;;11.90;4.20;;;;;;;20.72;43.24;97423.48;108993;1273;22554;-81
2023/05/27 09:22:22;;;;;;;12.40;4.10;;;;;;;20.67;42.81;97419.53;108981;1267;22559;-81
2023/05/27 09:24:56;;;;;;;9.40;3.80;;;;;;;20.61;42.88;97414.75;108996;1273;22564;-81
2023/05/27 09:27:31;;;;;;;10.50;3.90;;;;;;;20.44;41.85;97410.48;108947;1267;24332;-81
2023/05/27 09:30:10;;;;;;;13.30;4.20;;;;;;;20.17;42.32;97407.67;108951;1273;22542;-90
2023/05/27 09:32:41;;;;;;;12.80;4.10;;;;;;;20.17;43.12;97403.05;108961;1273;22556;-89
2023/05/27 09:35:14;;;;;;;11.10;3.80;;;;;;;20.23;43.06;97405.80;109064;1255;22535;-89
2023/05/27 09:37:46;;;;;;;14.30;4.20;;;;;;;20.11;42.71;97409.08;108952;1263;39097;-90
2023/05/27 09:40:17;;;;;;;12.20;4.70;;;;;;;20.08;42.99;97407.17;108905;1273;22601;-88
2023/05/27 09:42:50;;;;;;;12.00;4.80;;;;;;;20.06;43.20;97402.58;109023;1274;22552;-90
2023/05/27 09:45:22;;;;;;;11.70;4.00;;;;;;;20.11;43.41;97402.39;108967;1267;22567;-89
2023/05/27 09:47:55;;;;;;;13.70;4.50;;;;;;;20.13;43.62;97408.02;108959;1270;34142;-82
2023/05/27 09:50:28;;;;;;;13.60;5.00;;;;;;;20.16;43.56;97402.48;108982;1273;25470;-83
2023/05/27 09:53:02;;;;;;;12.00;4.10;;;;;;;20.11;43.79;97403.80;109002;1267;22563;-82
2023/05/27 09:55:33;;;;;;;12.00;4.50;;;;;;;20.14;43.81;97399.86;108974;1270;22521;-84
2023/05/27 09:58:07;;;;;;;9.50;4.50;;;;;;;20.17;43.64;97400.86;108925;1273;25241;-83
2023/05/27 10:00:40;;;;;;;12.10;4.40;;;;;;;20.10;43.04;97398.43;108987;1270;22547;-83
2023/05/27 10:03:13;;;;;;;12.90;4.60;;;;;;;20.01;43.01;97398.04;108990;1266;22534;-81
2023/05/27 10:05:45;;;;;;;9.90;3.90;;;;;;;19.84;42.54;97398.15;108936;1267;36374;-83
2023/05/27 10:08:16;;;;;;;11.10;3.80;;;;;;;19.84;42.84;97400.03;108944;1266;22535;-83
2023/05/27 10:10:49;;;;;;;14.60;4.60;;;;;;;19.84;42.56;97397.98;108932;1273;25399;-83
2023/05/27 10:13:21;;;;;;;11.20;4.20;;;;;;;19.82;42.41;97399.33;108965;1267;24270;-82
2023/05/27 10:15:54;;;;;;;12.10;4.50;;;;;;;19.82;42.62;97395.52;108941;1273;33501;-82
2023/05/27 10:18:29;;;;;;;10.30;4.40;;;;;;;19.84;41.88;97392.84;108938;1267;22515;-82
2023/05/27 10:21:04;;;;;;;10.00;4.30;;;;;;;19.68;41.35;97396.46;108961;1267;25397;-81
2023/05/27 10:23:36;;;;;;;21.20;5.00;;;;;;;19.46;41.04;97400.30;108926;1273;22695;-86
2023/05/27 10:26:09;;;;;;;13.20;4.30;;;;;;;19.33;42.12;97399.64;108988;1274;24051;-81
2023/05/27 10:28:41;;;;;;;11.30;4.40;;;;;;;19.20;41.81;97395.11;108966;1267;25422;-81
2023/05/27 10:31:15;;;;;;;10.70;3.80;;;;;;;18.80;42.03;97401.04;108990;1273;22584;-82
2023/05/27 10:33:48;;;;;;;12.60;4.40;;;;;;;18.78;42.83;97402.30;108973;1273;22638;-81
2023/05/27 10:36:26;;;;;;;11.30;4.30;;;;;;;18.97;44.15;97399.83;109015;1267;38009;-82
2023/05/27 10:39:02;;;;;;;8.20;4.30;;;;;;;19.07;43.09;97396.13;109076;1266;22550;-85
2023/05/27 10:41:43;;;;;;;10.90;4.60;;;;;;;18.74;43.42;97393.27;109071;1273;24270;-83
2023/05/27 10:44:14;;;;;;;10.70;5.00;;;;;;;18.79;44.36;97389.70;109011;1273;22528;-90
2023/05/27 10:46:46;;;;;;;14.60;5.40;;;;;;;18.82;44.10;97389.54;108944;1274;25239;-88
2023/05/27 10:49:27;;;;;;;16.10;5.30;;;;;;;18.87;45.15;97396.45;108976;1273;25394;-90
2023/05/27 10:52:04;;;;;;;14.00;5.00;;;;;;;19.09;45.82;97393.71;108986;1273;22552;-89
2023/05/27 10:54:37;;;;;;;11.30;4.80;;;;;;;19.16;45.07;97390.28;108968;1274;22532;-91
2023/05/27 10:57:09;;;;;;;12.20;4.90;;;;;;;19.26;46.02;97385.04;108957;1269;22614;-90
2023/05/27 10:59:49;;;;;;;12.00;4.70;;;;;;;19.45;45.80;97382.67;108964;1267;22531;-91
2023/05/27 11:02:21;;;;;;;13.50;5.00;;;;;;;19.44;44.99;97383.16;108974;1273;22514;-91
2023/05/27 11:04:53;;;;;;;12.00;5.30;;;;;;;19.34;44.73;97380.17;108987;1273;22543;-91
2023/05/27 11:07:25;;;;;;;12.60;5.20;;;;;;;19.30;45.56;97383.69;108971;1273;22634;-90
2023/05/27 11:09:57;;;;;;;9.90;4.00;;;;;;;19.43;45.89;97380.17;108968;1273;22556;-90
2023/05/27 11:12:28;;;;;;;10.40;4.30;;;;;;;19.37;45.01;97377.61;108988;1273;22534;-91
2023/05/27 11:14:59;;;;;;;11.10;4.40;;;;;;;19.29;45.66;97378.71;108979;1267;25315;-91
2023/05/27 11:17:30;;;;;;;12.40;5.10;;;;;;;19.32;46.06;97378.41;108967;1273;22515;-91
2023/05/27 11:20:05;;;;;;;14.10;5.00;;;;;;;19.42;46.17;97375.45;108988;1273;22518;-90
2023/05/27 11:22:36;;;;;;;10.80;4.70;;;;;;;19.51;46.05;97371.35;108943;1267;22533;-90
2023/05/27 11:25:09;;;;;;;14.00;4.50;;;;;;;19.59;45.84;97373.46;109036;1273;22538;-89
2023/05/27 11:27:41;;;;;;;12.80;4.80;;;;;;;19.62;45.35;97372.83;109029;1273;22562;-92
2023/05/27 11:30:15;;;;;;;12.70;5.00;;;;;;;19.59;45.40;97371.09;109035;1273;22543;-87
2023/05/27 11:32:46;;;;;;;12.40;5.10;;;;;;;19.62;45.84;97367.52;109006;1267;22538;-86
2023/05/27 11:35:18;;;;;;;10.70;4.40;;;;;;;19.66;45.81;97362.91;109008;1269;22511;-86
2023/05/27 11:37:52;;;;;;;14.10;5.60;;;;;;;19.64;45.83;97367.86;108972;1273;22543;-86
2023/05/27 11:40:24;;;;;;;12.80;4.20;;;;;;;19.68;45.63;97367.46;108980;1266;22563;-86